SBOSBO GND / TGPY
Speedbird OnlineSpeedbird Online GND / TGPY

Point Salines International Airport
12:50 27°C

Location Point Salines, Grenada
Latitude: 12.004199981689453
Longitude: -61.78620147705078
Local Time 12:50 on 30 May 2024
UTC -4 hours (America/Grenada)
Currency £1 equals XCD 3.44
METAR TGPY 301620Z 12010KT 9999 VCSH SCT012CB SCT014 27/25 Q1015 NOSIG RMK CB-SSE-W/NW VCSH-S-W
TAF TAF TGPY 301000Z 3012/3112 11014KT 9999 FEW014CB SCT018 SCT038 TEMPO 3012/3016 10015G25KT 5000 SHRA TS FEW012CB BKN016 BKN036 BECMG 3018/3020 FEW018 SCT038
Weather As Of 30 May 2024 12:50
Description Scattered clouds
Wind 19 km/h from South-East (120°)
Cloud Cover 40%
Precipitation Rain: none, Snow: none
Sunrise 05:41
Sunset 18:28
NOTAM 2 active NOTAM
Rotations During the last 90 days there were
37 flights from UVF
36 flights to UVF
Lounges IAM Jet Centre, Jet Centre Terminal
Web Airport Website | Wikipedia
Codes IATA: GND
ICAO: TGPY
Altitude 12 Meter / 41 Feet
Distance 7,038 KM / 4,373 Miles
from London.
Runways
RunwayLength (m)Surface
102744Asphalt
282744Asphalt
Radio
TypeDescriptionFrequency
APPAPP119.4
GNDGND121.9
TWRTWR118.9
Live ATC



Support Speedbird Online

© 2017-2024 Speedbird Online